sensor_id;sensor_type;location;lat;lon;timestamp;pressure;altitude;pressure_sealevel;temperature;humidity
26859;BME280;14429;48.346;16.338;2022-07-05T00:02:05;99682.16;;;28.80;51.45
26859;BME280;14429;48.346;16.338;2022-07-05T00:04:30;99671.75;;;28.82;51.65
26859;BME280;14429;48.346;16.338;2022-07-05T00:06:56;99669.66;;;28.84;51.69
26859;BME280;14429;48.346;16.338;2022-07-05T00:09:23;99661.19;;;28.85;51.64
26859;BME280;14429;48.346;16.338;2022-07-05T00:11:48;99663.94;;;28.85;51.46
26859;BME280;14429;48.346;16.338;2022-07-05T00:14:13;99667.78;;;28.78;51.59
26859;BME280;14429;48.346;16.338;2022-07-05T00:16:39;99669.66;;;28.84;51.36
26859;BME280;14429;48.346;16.338;2022-07-05T00:19:04;99659.09;;;28.81;51.69
26859;BME280;14429;48.346;16.338;2022-07-05T00:21:30;99659.25;;;28.55;50.88
26859;BME280;14429;48.346;16.338;2022-07-05T00:23:55;99661.63;;;27.58;53.44
26859;BME280;14429;48.346;16.338;2022-07-05T00:26:22;99654.75;;;28.17;53.36
26859;BME280;14429;48.346;16.338;2022-07-05T00:28:47;99653.41;;;28.39;52.76
26859;BME280;14429;48.346;16.338;2022-07-05T00:31:13;99651.44;;;28.52;51.96
26859;BME280;14429;48.346;16.338;2022-07-05T00:33:38;99649.06;;;28.62;51.63
26859;BME280;14429;48.346;16.338;2022-07-05T00:36:04;99652.06;;;28.61;51.76
26859;BME280;14429;48.346;16.338;2022-07-05T00:38:30;99658.38;;;28.61;51.98
26859;BME280;14429;48.346;16.338;2022-07-05T00:40:55;99648.25;;;28.62;51.75
26859;BME280;14429;48.346;16.338;2022-07-05T00:43:22;99642.97;;;28.60;51.82
26859;BME280;14429;48.346;16.338;2022-07-05T00:45:48;99656.50;;;28.55;52.15
26859;BME280;14429;48.346;16.338;2022-07-05T00:48:13;99659.00;;;28.63;51.55
26859;BME280;14429;48.346;16.338;2022-07-05T00:50:39;99668.94;;;28.64;51.41
26859;BME280;14429;48.346;16.338;2022-07-05T00:53:05;99664.97;;;28.54;51.81
26859;BME280;14429;48.346;16.338;2022-07-05T00:55:31;99677.13;;;28.15;51.81
26859;BME280;14429;48.346;16.338;2022-07-05T00:57:56;99666.97;;;28.28;52.31
26859;BME280;14429;48.346;16.338;2022-07-05T01:00:23;99677.53;;;28.18;52.59
26859;BME280;14429;48.346;16.338;2022-07-05T01:02:49;99672.06;;;28.18;52.52
26859;BME280;14429;48.346;16.338;2022-07-05T01:05:14;99677.59;;;28.05;52.90
26859;BME280;14429;48.346;16.338;2022-07-05T01:07:40;99682.59;;;28.21;52.50
26859;BME280;14429;48.346;16.338;2022-07-05T01:10:12;99674.56;;;28.26;52.58
26859;BME280;14429;48.346;16.338;2022-07-05T01:12:38;99683.00;;;28.31;52.14
26859;BME280;14429;48.346;16.338;2022-07-05T01:15:05;99691.69;;;28.15;52.74
26859;BME280;14429;48.346;16.338;2022-07-05T01:17:33;99696.41;;;28.02;51.43
26859;BME280;14429;48.346;16.338;2022-07-05T01:19:58;99694.44;;;28.15;52.69
26859;BME280;14429;48.346;16.338;2022-07-05T01:22:25;99680.50;;;28.23;52.20
26859;BME280;14429;48.346;16.338;2022-07-05T01:24:52;99684.81;;;27.93;52.30
26859;BME280;14429;48.346;16.338;2022-07-05T01:27:18;99680.19;;;27.75;52.67
26859;BME280;14429;48.346;16.338;2022-07-05T01:29:44;99675.88;;;28.17;52.29
26859;BME280;14429;48.346;16.338;2022-07-05T01:32:10;99669.78;;;28.02;52.46
26859;BME280;14429;48.346;16.338;2022-07-05T01:34:37;99682.69;;;27.95;52.92
26859;BME280;14429;48.346;16.338;2022-07-05T01:37:03;99674.28;;;27.39;51.81
26859;BME280;14429;48.346;16.338;2022-07-05T01:39:30;99668.09;;;26.74;53.96
26859;BME280;14429;48.346;16.338;2022-07-05T01:41:56;99661.16;;;27.80;53.33
26859;BME280;14429;48.346;16.338;2022-07-05T01:44:22;99659.09;;;27.62;53.80
26859;BME280;14429;48.346;16.338;2022-07-05T01:46:51;99665.41;;;27.89;53.11
26859;BME280;14429;48.346;16.338;2022-07-05T01:49:19;99661.66;;;27.38;52.28
26859;BME280;14429;48.346;16.338;2022-07-05T01:51:48;99658.66;;;27.72;53.05
26859;BME280;14429;48.346;16.338;2022-07-05T01:54:16;99659.91;;;27.18;54.60
26859;BME280;14429;48.346;16.338;2022-07-05T01:56:41;99661.00;;;27.43;54.10
26859;BME280;14429;48.346;16.338;2022-07-05T01:59:08;99658.25;;;27.75;53.38
26859;BME280;14429;48.346;16.338;2022-07-05T02:01:35;99656.75;;;27.91;52.71
26859;BME280;14429;48.346;16.338;2022-07-05T02:04:03;99653.59;;;27.18;52.05
26859;BME280;14429;48.346;16.338;2022-07-05T02:06:30;99654.03;;;27.28;54.19
26859;BME280;14429;48.346;16.338;2022-07-05T02:08:55;99642.41;;;27.77;52.96
26859;BME280;14429;48.346;16.338;2022-07-05T02:11:21;99640.03;;;27.99;52.23
26859;BME280;14429;48.346;16.338;2022-07-05T02:13:46;99652.06;;;28.05;51.91
26859;BME280;14429;48.346;16.338;2022-07-05T02:16:13;99658.56;;;28.10;51.90
26859;BME280;14429;48.346;16.338;2022-07-05T02:18:38;99665.75;;;28.11;51.97
26859;BME280;14429;48.346;16.338;2022-07-05T02:21:04;99665.38;;;28.01;50.97
26859;BME280;14429;48.346;16.338;2022-07-05T02:23:29;99664.72;;;28.06;51.89
26859;BME280;14429;48.346;16.338;2022-07-05T02:25:55;99675.69;;;28.12;51.60
26859;BME280;14429;48.346;16.338;2022-07-05T02:28:20;99686.84;;;28.17;51.61
26859;BME280;14429;48.346;16.338;2022-07-05T02:30:45;99691.91;;;28.14;51.25
26859;BME280;14429;48.346;16.338;2022-07-05T02:33:12;99705.00;;;28.18;51.61
26859;BME280;14429;48.346;16.338;2022-07-05T02:35:38;99711.31;;;28.18;51.19
26859;BME280;14429;48.346;16.338;2022-07-05T02:38:03;99714.69;;;28.20;50.93
26859;BME280;14429;48.346;16.338;2022-07-05T02:40:29;99714.97;;;26.58;54.38
26859;BME280;14429;48.346;16.338;2022-07-05T02:42:54;99711.22;;;27.56;51.67
26859;BME280;14429;48.346;16.338;2022-07-05T02:45:20;99711.34;;;27.10;53.10
26859;BME280;14429;48.346;16.338;2022-07-05T02:47:46;99708.81;;;27.08;51.44
26859;BME280;14429;48.346;16.338;2022-07-05T02:50:12;99712.00;;;26.53;54.60
26859;BME280;14429;48.346;16.338;2022-07-05T02:52:39;99700.97;;;26.27;55.60
26859;BME280;14429;48.346;16.338;2022-07-05T02:55:05;99704.56;;;26.87;54.05
26859;BME280;14429;48.346;16.338;2022-07-05T02:57:31;99704.53;;;26.74;55.24
26859;BME280;14429;48.346;16.338;2022-07-05T02:59:57;99705.00;;;27.03;53.06
26859;BME280;14429;48.346;16.338;2022-07-05T03:02:22;99707.81;;;26.57;52.99
26859;BME280;14429;48.346;16.338;2022-07-05T03:04:48;99698.94;;;27.27;53.75
26859;BME280;14429;48.346;16.338;2022-07-05T03:07:15;99708.25;;;27.58;52.63
26859;BME280;14429;48.346;16.338;2022-07-05T03:09:41;99711.00;;;27.64;52.55
26859;BME280;14429;48.346;16.338;2022-07-05T03:12:07;99709.72;;;27.47;51.01
26859;BME280;14429;48.346;16.338;2022-07-05T03:14:32;99708.66;;;27.55;52.65
26859;BME280;14429;48.346;16.338;2022-07-05T03:16:58;99713.09;;;27.30;52.90
26859;BME280;14429;48.346;16.338;2022-07-05T03:19:23;99713.94;;;27.62;52.11
26859;BME280;14429;48.346;16.338;2022-07-05T03:21:49;99720.22;;;27.25;51.95
26859;BME280;14429;48.346;16.338;2022-07-05T03:24:16;99715.50;;;26.80;54.36
26859;BME280;14429;48.346;16.338;2022-07-05T03:26:41;99722.69;;;26.94;53.31
26859;BME280;14429;48.346;16.338;2022-07-05T03:29:07;99728.59;;;26.91;54.10
26859;BME280;14429;48.346;16.338;2022-07-05T03:31:32;99726.03;;;26.83;52.42
26859;BME280;14429;48.346;16.338;2022-07-05T03:33:58;99737.28;;;26.55;55.27
26859;BME280;14429;48.346;16.338;2022-07-05T03:36:23;99733.09;;;26.59;55.25
26859;BME280;14429;48.346;16.338;2022-07-05T03:38:49;99729.19;;;25.47;56.94
26859;BME280;14429;48.346;16.338;2022-07-05T03:41:16;99734.50;;;26.95;54.16
26859;BME280;14429;48.346;16.338;2022-07-05T03:43:41;99738.28;;;26.94;54.13
26859;BME280;14429;48.346;16.338;2022-07-05T03:46:06;99744.94;;;27.37;52.68
26859;BME280;14429;48.346;16.338;2022-07-05T03:48:32;99739.13;;;26.94;51.88
26859;BME280;14429;48.346;16.338;2022-07-05T03:50:58;99738.00;;;27.41;52.46
26859;BME280;14429;48.346;16.338;2022-07-05T03:53:23;99754.22;;;27.30;52.50
26859;BME280;14429;48.346;16.338;2022-07-05T03:55:49;99740.38;;;26.85;52.62
26859;BME280;14429;48.346;16.338;2022-07-05T03:58:15;99739.25;;;26.27;54.51
26859;BME280;14429;48.346;16.338;2022-07-05T04:00:41;99737.88;;;26.90;54.09
26859;BME280;14429;48.346;16.338;2022-07-05T04:03:06;99745.16;;;27.30;52.67
26859;BME280;14429;48.346;16.338;2022-07-05T04:05:32;99742.53;;;27.09;53.46
26859;BME280;14429;48.346;16.338;2022-07-05T04:07:57;99729.63;;;26.78;53.85
26859;BME280;14429;48.346;16.338;2022-07-05T04:10:23;99737.94;;;26.17;54.84
26859;BME280;14429;48.346;16.338;2022-07-05T04:12:49;99731.00;;;26.61;54.65
26859;BME280;14429;48.346;16.338;2022-07-05T04:15:16;99734.72;;;27.06;53.26
26859;BME280;14429;48.346;16.338;2022-07-05T04:17:48;99731.81;;;27.08;53.18
26859;BME280;14429;48.346;16.338;2022-07-05T04:20:14;99716.78;;;26.78;53.83
26859;BME280;14429;48.346;16.338;2022-07-05T04:22:39;99733.63;;;26.81;53.90
26859;BME280;14429;48.346;16.338;2022-07-05T04:25:05;99734.38;;;26.63;53.88
26859;BME280;14429;48.346;16.338;2022-07-05T04:27:31;99733.94;;;26.66;54.20
26859;BME280;14429;48.346;16.338;2022-07-05T04:29:56;99732.22;;;27.17;52.63
26859;BME280;14429;48.346;16.338;2022-07-05T04:32:23;99737.06;;;27.22;52.57
26859;BME280;14429;48.346;16.338;2022-07-05T04:34:49;99744.91;;;26.66;54.15
26859;BME280;14429;48.346;16.338;2022-07-05T04:37:14;99741.84;;;26.88;53.20
26859;BME280;14429;48.346;16.338;2022-07-05T04:39:40;99739.59;;;27.04;52.91
26859;BME280;14429;48.346;16.338;2022-07-05T04:42:05;99740.00;;;27.01;52.61
26859;BME280;14429;48.346;16.338;2022-07-05T04:44:31;99748.50;;;27.32;52.07
26859;BME280;14429;48.346;16.338;2022-07-05T04:46:56;99750.34;;;27.18;52.42
26859;BME280;14429;48.346;16.338;2022-07-05T04:49:23;99744.59;;;26.88;52.89
26859;BME280;14429;48.346;16.338;2022-07-05T04:51:48;99748.69;;;27.24;52.27
26859;BME280;14429;48.346;16.338;2022-07-05T04:54:14;99750.47;;;26.05;54.75
26859;BME280;14429;48.346;16.338;2022-07-05T04:56:39;99753.22;;;26.39;54.37
26859;BME280;14429;48.346;16.338;2022-07-05T04:59:04;99753.31;;;26.64;54.04
26859;BME280;14429;48.346;16.338;2022-07-05T05:01:30;99759.84;;;27.16;52.34
26859;BME280;14429;48.346;16.338;2022-07-05T05:03:55;99761.94;;;27.14;52.44
26859;BME280;14429;48.346;16.338;2022-07-05T05:06:22;99768.41;;;26.08;54.36
26859;BME280;14429;48.346;16.338;2022-07-05T05:08:48;99758.44;;;26.74;51.99
26859;BME280;14429;48.346;16.338;2022-07-05T05:11:13;99764.16;;;26.79;53.25
26859;BME280;14429;48.346;16.338;2022-07-05T05:13:38;99756.75;;;26.73;53.38
26859;BME280;14429;48.346;16.338;2022-07-05T05:16:04;99764.75;;;26.34;53.17
26859;BME280;14429;48.346;16.338;2022-07-05T05:18:30;99766.50;;;26.81;53.40
26859;BME280;14429;48.346;16.338;2022-07-05T05:20:55;99767.00;;;27.17;52.37
26859;BME280;14429;48.346;16.338;2022-07-05T05:23:30;99762.78;;;27.14;52.31
26859;BME280;14429;48.346;16.338;2022-07-05T05:25:55;99770.22;;;26.01;53.40
26859;BME280;14429;48.346;16.338;2022-07-05T05:28:20;99765.22;;;26.84;53.17
26859;BME280;14429;48.346;16.338;2022-07-05T05:30:46;99757.09;;;26.57;53.50
26859;BME280;14429;48.346;16.338;2022-07-05T05:33:12;99757.09;;;27.16;52.11
26859;BME280;14429;48.346;16.338;2022-07-05T05:35:37;99767.78;;;26.98;52.00
26859;BME280;14429;48.346;16.338;2022-07-05T05:38:03;99767.91;;;27.30;51.75
26859;BME280;14429;48.346;16.338;2022-07-05T05:40:30;99767.50;;;27.39;51.26
26859;BME280;14429;48.346;16.338;2022-07-05T05:42:55;99766.53;;;27.07;51.27
26859;BME280;14429;48.346;16.338;2022-07-05T05:45:21;99775.06;;;27.31;51.46
26859;BME280;14429;48.346;16.338;2022-07-05T05:47:48;99773.72;;;27.02;52.36
26859;BME280;14429;48.346;16.338;2022-07-05T05:50:15;99775.44;;;27.22;51.65
26859;BME280;14429;48.346;16.338;2022-07-05T05:52:42;99768.28;;;27.21;51.64
26859;BME280;14429;48.346;16.338;2022-07-05T05:55:08;99761.50;;;27.04;51.82
26859;BME280;14429;48.346;16.338;2022-07-05T05:57:35;99764.59;;;26.88;52.47
26859;BME280;14429;48.346;16.338;2022-07-05T06:00:01;99764.84;;;27.00;52.15
26859;BME280;14429;48.346;16.338;2022-07-05T06:02:26;99765.28;;;27.03;51.92
26859;BME280;14429;48.346;16.338;2022-07-05T06:04:52;99768.69;;;27.18;51.56
26859;BME280;14429;48.346;16.338;2022-07-05T06:07:17;99767.41;;;27.14;51.67
26859;BME280;14429;48.346;16.338;2022-07-05T06:09:43;99769.53;;;27.12;51.81
26859;BME280;14429;48.346;16.338;2022-07-05T06:12:08;99770.84;;;27.29;51.37
26859;BME280;14429;48.346;16.338;2022-07-05T06:14:35;99768.25;;;27.08;51.67
26859;BME280;14429;48.346;16.338;2022-07-05T06:17:01;99775.00;;;27.12;51.59
26859;BME280;14429;48.346;16.338;2022-07-05T06:19:26;99770.19;;;27.27;51.21
26859;BME280;14429;48.346;16.338;2022-07-05T06:21:52;99770.81;;;27.16;51.23
26859;BME280;14429;48.346;16.338;2022-07-05T06:24:17;99771.22;;;27.19;51.54
26859;BME280;14429;48.346;16.338;2022-07-05T06:26:42;99775.81;;;27.06;51.88
26859;BME280;14429;48.346;16.338;2022-07-05T06:29:14;99765.94;;;27.18;51.30
26859;BME280;14429;48.346;16.338;2022-07-05T06:31:41;99776.91;;;27.18;51.49
26859;BME280;14429;48.346;16.338;2022-07-05T06:34:07;99772.06;;;27.20;51.36
26859;BME280;14429;48.346;16.338;2022-07-05T06:36:32;99781.50;;;27.11;51.53
26859;BME280;14429;48.346;16.338;2022-07-05T06:38:58;99769.28;;;27.01;51.75
26859;BME280;14429;48.346;16.338;2022-07-05T06:41:23;99771.22;;;27.26;51.05
26859;BME280;14429;48.346;16.338;2022-07-05T06:43:48;99771.00;;;27.21;51.28
26859;BME280;14429;48.346;16.338;2022-07-05T06:46:14;99778.75;;;26.98;51.81
26859;BME280;14429;48.346;16.338;2022-07-05T06:48:41;99776.06;;;26.65;52.23
26859;BME280;14429;48.346;16.338;2022-07-05T06:51:07;99774.56;;;27.08;51.37
26859;BME280;14429;48.346;16.338;2022-07-05T06:53:32;99783.00;;;26.61;52.95
26859;BME280;14429;48.346;16.338;2022-07-05T06:55:57;99783.81;;;27.01;51.76
26859;BME280;14429;48.346;16.338;2022-07-05T06:58:24;99780.50;;;27.12;51.44
26859;BME280;14429;48.346;16.338;2022-07-05T07:00:49;99782.50;;;26.84;51.49
26859;BME280;14429;48.346;16.338;2022-07-05T07:03:15;99780.88;;;26.96;51.71
26859;BME280;14429;48.346;16.338;2022-07-05T07:05:41;99774.56;;;27.02;51.74
26859;BME280;14429;48.346;16.338;2022-07-05T07:08:07;99773.59;;;26.70;52.27
26859;BME280;14429;48.346;16.338;2022-07-05T07:10:32;99775.34;;;26.83;51.88
26859;BME280;14429;48.346;16.338;2022-07-05T07:12:58;99775.72;;;26.74;52.05
26859;BME280;14429;48.346;16.338;2022-07-05T07:15:24;99775.41;;;26.96;51.80
26859;BME280;14429;48.346;16.338;2022-07-05T07:17:49;99770.75;;;27.03;51.32
26859;BME280;14429;48.346;16.338;2022-07-05T07:20:15;99771.09;;;26.75;52.20
26859;BME280;14429;48.346;16.338;2022-07-05T07:22:42;99765.25;;;26.90;51.84
26859;BME280;14429;48.346;16.338;2022-07-05T07:25:08;99770.78;;;27.09;51.14
26859;BME280;14429;48.346;16.338;2022-07-05T07:27:41;99766.78;;;26.59;52.58
26859;BME280;14429;48.346;16.338;2022-07-05T07:30:08;99781.72;;;26.97;51.44
26859;BME280;14429;48.346;16.338;2022-07-05T07:32:33;99783.19;;;26.53;52.89
26859;BME280;14429;48.346;16.338;2022-07-05T07:34:59;99777.06;;;26.97;51.50
26859;BME280;14429;48.346;16.338;2022-07-05T07:37:24;99771.34;;;26.92;51.66
26859;BME280;14429;48.346;16.338;2022-07-05T07:39:51;99775.78;;;26.87;51.71
26859;BME280;14429;48.346;16.338;2022-07-05T07:42:16;99777.19;;;26.77;52.15
26859;BME280;14429;48.346;16.338;2022-07-05T07:44:42;99780.00;;;26.96;51.46
26859;BME280;14429;48.346;16.338;2022-07-05T07:47:07;99784.00;;;26.93;51.55
26859;BME280;14429;48.346;16.338;2022-07-05T07:49:33;99780.66;;;26.98;51.39
26859;BME280;14429;48.346;16.338;2022-07-05T07:51:58;99781.31;;;27.06;51.22
26859;BME280;14429;48.346;16.338;2022-07-05T07:54:24;99782.25;;;26.73;52.03
26859;BME280;14429;48.346;16.338;2022-07-05T07:56:50;99783.34;;;26.79;51.80
26859;BME280;14429;48.346;16.338;2022-07-05T07:59:16;99780.66;;;26.58;52.82
26859;BME280;14429;48.346;16.338;2022-07-05T08:01:41;99786.59;;;26.61;52.45
26859;BME280;14429;48.346;16.338;2022-07-05T08:04:07;99789.72;;;26.98;51.47
26859;BME280;14429;48.346;16.338;2022-07-05T08:06:32;99789.50;;;26.93;51.63
26859;BME280;14429;48.346;16.338;2022-07-05T08:08:58;99790.88;;;26.77;52.00
26859;BME280;14429;48.346;16.338;2022-07-05T08:11:23;99791.56;;;26.91;51.47
26859;BME280;14429;48.346;16.338;2022-07-05T08:13:50;99791.28;;;26.74;51.98
26859;BME280;14429;48.346;16.338;2022-07-05T08:16:15;99797.59;;;26.68;52.19
26859;BME280;14429;48.346;16.338;2022-07-05T08:18:41;99802.91;;;26.42;53.04
26859;BME280;14429;48.346;16.338;2022-07-05T08:21:06;99803.13;;;26.47;52.83
26859;BME280;14429;48.346;16.338;2022-07-05T08:23:32;99806.44;;;26.70;52.05
26859;BME280;14429;48.346;16.338;2022-07-05T08:25:57;99800.56;;;26.73;52.14
26859;BME280;14429;48.346;16.338;2022-07-05T08:28:23;99800.72;;;26.31;53.33
26859;BME280;14429;48.346;16.338;2022-07-05T08:30:49;99794.94;;;26.47;52.89
26859;BME280;14429;48.346;16.338;2022-07-05T08:33:15;99806.84;;;26.67;52.22
26859;BME280;14429;48.346;16.338;2022-07-05T08:35:40;99811.06;;;26.69;52.16
26859;BME280;14429;48.346;16.338;2022-07-05T08:38:06;99804.34;;;26.72;52.06
26859;BME280;14429;48.346;16.338;2022-07-05T08:40:33;99809.00;;;26.71;52.15
26859;BME280;14429;48.346;16.338;2022-07-05T08:43:02;99820.66;;;26.52;52.63
26859;BME280;14429;48.346;16.338;2022-07-05T08:45:30;99815.97;;;26.47;52.73
26859;BME280;14429;48.346;16.338;2022-07-05T08:48:00;99822.06;;;26.09;53.76
26859;BME280;14429;48.346;16.338;2022-07-05T08:50:26;99829.00;;;26.38;53.01
26859;BME280;14429;48.346;16.338;2022-07-05T08:52:52;99815.38;;;26.18;53.65
26859;BME280;14429;48.346;16.338;2022-07-05T08:55:18;99835.22;;;26.26;53.51
26859;BME280;14429;48.346;16.338;2022-07-05T08:57:43;99828.81;;;26.13;53.83
26859;BME280;14429;48.346;16.338;2022-07-05T09:00:10;99836.41;;;26.17;53.52
26859;BME280;14429;48.346;16.338;2022-07-05T09:02:36;99843.75;;;26.44;52.92
26859;BME280;14429;48.346;16.338;2022-07-05T09:05:04;99833.72;;;26.57;52.45
26859;BME280;14429;48.346;16.338;2022-07-05T09:07:32;99843.47;;;26.32;53.26
26859;BME280;14429;48.346;16.338;2022-07-05T09:10:01;99839.22;;;26.57;52.53
26859;BME280;14429;48.346;16.338;2022-07-05T09:12:27;99842.22;;;26.35;53.18
26859;BME280;14429;48.346;16.338;2022-07-05T09:14:54;99846.13;;;26.53;52.52
26859;BME280;14429;48.346;16.338;2022-07-05T09:17:19;99844.50;;;26.65;52.18
26859;BME280;14429;48.346;16.338;2022-07-05T09:19:52;99846.75;;;26.55;52.48
26859;BME280;14429;48.346;16.338;2022-07-05T09:22:41;99852.63;;;25.98;53.66
26859;BME280;14429;48.346;16.338;2022-07-05T09:25:13;99854.25;;;26.07;53.38
26859;BME280;14429;48.346;16.338;2022-07-05T09:27:47;99856.88;;;26.00;53.85
26859;BME280;14429;48.346;16.338;2022-07-05T09:30:23;99853.50;;;26.19;53.29
26859;BME280;14429;48.346;16.338;2022-07-05T09:32:59;99870.56;;;26.00;54.02
26859;BME280;14429;48.346;16.338;2022-07-05T09:35:25;99861.91;;;26.51;52.36
26859;BME280;14429;48.346;16.338;2022-07-05T09:37:51;99863.28;;;26.34;52.56
26859;BME280;14429;48.346;16.338;2022-07-05T09:40:17;99860.09;;;26.31;52.95
26859;BME280;14429;48.346;16.338;2022-07-05T09:42:43;99867.28;;;26.38;52.90
26859;BME280;14429;48.346;16.338;2022-07-05T09:45:08;99860.44;;;26.55;52.38
26859;BME280;14429;48.346;16.338;2022-07-05T09:47:34;99867.69;;;26.35;53.16
26859;BME280;14429;48.346;16.338;2022-07-05T09:49:59;99876.34;;;26.12;53.93
26859;BME280;14429;48.346;16.338;2022-07-05T09:52:26;99866.00;;;26.34;53.29
26859;BME280;14429;48.346;16.338;2022-07-05T09:55:02;99873.72;;;26.52;52.82
26859;BME280;14429;48.346;16.338;2022-07-05T09:57:28;99867.63;;;26.23;53.61
26859;BME280;14429;48.346;16.338;2022-07-05T09:59:58;99871.50;;;26.07;54.32
26859;BME280;14429;48.346;16.338;2022-07-05T10:02:34;99871.50;;;26.07;55.57
26859;BME280;14429;48.346;16.338;2022-07-05T10:05:08;99867.28;;;26.38;54.13
26859;BME280;14429;48.346;16.338;2022-07-05T10:07:34;99870.28;;;26.43;53.15
26859;BME280;14429;48.346;16.338;2022-07-05T10:10:02;99876.97;;;26.34;54.77
26859;BME280;14429;48.346;16.338;2022-07-05T10:12:28;99870.59;;;26.27;54.87
26859;BME280;14429;48.346;16.338;2022-07-05T10:14:57;99876.25;;;26.53;53.86
26859;BME280;14429;48.346;16.338;2022-07-05T10:17:22;99876.19;;;26.47;54.47
26859;BME280;14429;48.346;16.338;2022-07-05T10:19:49;99878.84;;;26.34;54.38
26859;BME280;14429;48.346;16.338;2022-07-05T10:22:15;99875.94;;;26.69;52.52
26859;BME280;14429;48.346;16.338;2022-07-05T10:24:41;99880.50;;;26.62;54.66
26859;BME280;14429;48.346;16.338;2022-07-05T10:27:08;99887.00;;;26.81;52.13
26859;BME280;14429;48.346;16.338;2022-07-05T10:29:34;99894.09;;;26.76;52.38
26859;BME280;14429;48.346;16.338;2022-07-05T10:32:01;99890.91;;;26.73;52.39
26859;BME280;14429;48.346;16.338;2022-07-05T10:34:26;99877.53;;;26.90;51.88
26859;BME280;14429;48.346;16.338;2022-07-05T10:36:53;99894.06;;;26.70;52.59
26859;BME280;14429;48.346;16.338;2022-07-05T10:39:18;99883.84;;;26.57;53.24
26859;BME280;14429;48.346;16.338;2022-07-05T10:41:44;99891.78;;;26.46;53.93
26859;BME280;14429;48.346;16.338;2022-07-05T10:44:25;99891.47;;;26.35;53.90
26859;BME280;14429;48.346;16.338;2022-07-05T10:46:51;99892.09;;;26.64;52.83
26859;BME280;14429;48.346;16.338;2022-07-05T10:49:17;99895.94;;;26.42;53.64
26859;BME280;14429;48.346;16.338;2022-07-05T10:51:42;99899.25;;;26.31;54.48
26859;BME280;14429;48.346;16.338;2022-07-05T10:54:08;99905.53;;;26.26;55.05
26859;BME280;14429;48.346;16.338;2022-07-05T10:56:34;99910.88;;;26.67;52.77
26859;BME280;14429;48.346;16.338;2022-07-05T10:59:06;99898.34;;;26.79;52.40
26859;BME280;14429;48.346;16.338;2022-07-05T11:01:36;99899.53;;;26.70;52.88
26859;BME280;14429;48.346;16.338;2022-07-05T11:04:27;99904.91;;;26.57;53.26
26859;BME280;14429;48.346;16.338;2022-07-05T11:06:52;99896.56;;;26.11;56.33
26859;BME280;14429;48.346;16.338;2022-07-05T11:09:19;99900.91;;;26.32;54.09
26859;BME280;14429;48.346;16.338;2022-07-05T11:11:46;99891.38;;;26.49;53.71
26859;BME280;14429;48.346;16.338;2022-07-05T11:14:29;99902.41;;;26.62;53.22
26859;BME280;14429;48.346;16.338;2022-07-05T11:17:21;99899.94;;;26.67;52.92
26859;BME280;14429;48.346;16.338;2022-07-05T11:20:10;99895.09;;;26.69;52.90
26859;BME280;14429;48.346;16.338;2022-07-05T11:22:37;99900.66;;;26.54;53.94
26859;BME280;14429;48.346;16.338;2022-07-05T11:25:03;99896.03;;;26.55;53.35
26859;BME280;14429;48.346;16.338;2022-07-05T11:27:29;99905.00;;;26.16;54.82
26859;BME280;14429;48.346;16.338;2022-07-05T11:29:56;99893.63;;;26.39;53.91
26859;BME280;14429;48.346;16.338;2022-07-05T11:32:34;99897.19;;;26.40;53.85
26859;BME280;14429;48.346;16.338;2022-07-05T11:35:12;99893.66;;;26.73;52.71
26859;BME280;14429;48.346;16.338;2022-07-05T11:37:56;99905.56;;;26.32;54.66
26859;BME280;14429;48.346;16.338;2022-07-05T11:40:32;99895.78;;;26.71;52.86
26859;BME280;14429;48.346;16.338;2022-07-05T11:42:58;99900.31;;;26.64;53.03
26859;BME280;14429;48.346;16.338;2022-07-05T11:45:24;99891.31;;;26.70;52.83
26859;BME280;14429;48.346;16.338;2022-07-05T11:47:53;99888.97;;;26.67;53.38
26859;BME280;14429;48.346;16.338;2022-07-05T11:50:25;99888.34;;;26.38;54.10
26859;BME280;14429;48.346;16.338;2022-07-05T11:52:51;99882.31;;;26.76;52.71
26859;BME280;14429;48.346;16.338;2022-07-05T11:55:17;99884.53;;;26.66;53.13
26859;BME280;14429;48.346;16.338;2022-07-05T11:57:48;99876.16;;;26.74;52.69
26859;BME280;14429;48.346;16.338;2022-07-05T12:00:25;99880.69;;;26.87;52.46
26859;BME280;14429;48.346;16.338;2022-07-05T12:02:52;99882.75;;;26.79;52.89
26859;BME280;14429;48.346;16.338;2022-07-05T12:05:17;99884.28;;;26.61;53.14
26859;BME280;14429;48.346;16.338;2022-07-05T12:07:48;99866.97;;;26.87;52.42
26859;BME280;14429;48.346;16.338;2022-07-05T12:10:14;99866.81;;;26.95;52.00
26859;BME280;14429;48.346;16.338;2022-07-05T12:12:40;99866.53;;;26.84;52.49
26859;BME280;14429;48.346;16.338;2022-07-05T12:15:06;99865.53;;;26.91;52.19
26859;BME280;14429;48.346;16.338;2022-07-05T12:17:33;99860.63;;;26.80;53.04
26859;BME280;14429;48.346;16.338;2022-07-05T12:20:01;99857.00;;;26.74;52.75
26859;BME280;14429;48.346;16.338;2022-07-05T12:22:30;99851.84;;;26.91;52.30
26859;BME280;14429;48.346;16.338;2022-07-05T12:24:56;99851.63;;;26.86;53.92
26859;BME280;14429;48.346;16.338;2022-07-05T12:27:21;99857.72;;;26.88;52.57
26859;BME280;14429;48.346;16.338;2022-07-05T12:29:47;99855.38;;;26.79;52.97
26859;BME280;14429;48.346;16.338;2022-07-05T12:32:12;99853.78;;;26.64;57.35
26859;BME280;14429;48.346;16.338;2022-07-05T12:34:38;99847.81;;;26.87;52.93
26859;BME280;14429;48.346;16.338;2022-07-05T12:37:05;99854.75;;;26.83;53.91
26859;BME280;14429;48.346;16.338;2022-07-05T12:39:30;99853.44;;;26.73;53.43
26859;BME280;14429;48.346;16.338;2022-07-05T12:41:56;99849.44;;;26.76;53.22
26859;BME280;14429;48.346;16.338;2022-07-05T12:44:21;99853.97;;;26.62;55.09
26859;BME280;14429;48.346;16.338;2022-07-05T12:46:47;99857.88;;;26.74;53.55
26859;BME280;14429;48.346;16.338;2022-07-05T12:49:13;99854.13;;;26.81;54.60